createdAt,value
2022-09-09T04:00:29.892Z,0.00
2022-09-09T04:05:29.828Z,0.00
2022-09-09T04:10:29.768Z,0.00
2022-09-09T04:15:29.720Z,0.00
2022-09-09T04:20:29.683Z,0.00
2022-09-09T04:25:29.610Z,0.00
2022-09-09T04:30:29.552Z,0.00
2022-09-09T04:35:29.499Z,4.00
2022-09-09T04:40:29.460Z,8.00
2022-09-09T04:45:29.439Z,16.00
2022-09-09T04:50:29.347Z,28.00
2022-09-09T04:55:29.273Z,40.00
2022-09-09T05:00:29.316Z,64.00
2022-09-09T05:05:29.249Z,96.00
2022-09-09T05:10:29.107Z,124.00
2022-09-09T05:15:29.063Z,164.00
2022-09-09T05:20:29.032Z,196.00
2022-09-09T05:25:28.956Z,256.00
2022-09-09T05:30:28.890Z,280.00
2022-09-09T05:35:28.844Z,204.00
2022-09-09T05:40:28.814Z,240.00
2022-09-09T05:45:28.722Z,312.00
2022-09-09T05:50:31.522Z,312.00
2022-09-09T05:55:28.635Z,404.00
2022-09-09T06:00:28.585Z,480.00
2022-09-09T06:05:28.514Z,336.00
2022-09-09T06:10:28.466Z,464.00
2022-09-09T06:15:28.407Z,1084.00
2022-09-09T06:20:28.374Z,1184.00
2022-09-09T06:25:28.295Z,1376.00
2022-09-09T06:30:28.243Z,1912.00
2022-09-09T06:35:28.192Z,1956.00
2022-09-09T06:40:28.157Z,1976.00
2022-09-09T06:45:28.079Z,2428.00
2022-09-09T06:50:28.026Z,3764.00
2022-09-09T06:55:27.967Z,2580.00
2022-09-09T07:00:27.975Z,3076.00
2022-09-09T07:05:27.858Z,3464.00
2022-09-09T07:10:27.825Z,3704.00
2022-09-09T07:15:27.750Z,5496.00
2022-09-09T07:20:27.704Z,5928.00
2022-09-09T07:25:27.639Z,4740.00
2022-09-09T07:30:28.098Z,2540.00
2022-09-09T07:35:27.526Z,2360.00
2022-09-09T07:40:27.488Z,3052.00
2022-09-09T07:45:27.417Z,3636.00
2022-09-09T07:50:27.357Z,3804.00
2022-09-09T07:55:27.308Z,6376.00
2022-09-09T08:00:27.274Z,4924.00
2022-09-09T08:05:27.196Z,4052.00
2022-09-09T08:10:27.139Z,4664.00
2022-09-09T08:15:27.086Z,5448.00
2022-09-09T08:20:27.046Z,4248.00
2022-09-09T08:25:26.976Z,3628.00
2022-09-09T08:30:26.921Z,2704.00
2022-09-09T08:35:26.867Z,2712.00
2022-09-09T08:40:26.832Z,3724.00
2022-09-09T08:45:26.762Z,6532.00
2022-09-09T08:50:26.705Z,4472.00
2022-09-09T08:55:26.652Z,3364.00
2022-09-09T09:00:26.612Z,1396.00
2022-09-09T09:05:26.540Z,2660.00
2022-09-09T09:10:41.185Z,2132.00
2022-09-09T09:15:29.511Z,3132.00
2022-09-09T09:20:26.397Z,5676.00
2022-09-09T09:25:26.320Z,6472.00
2022-09-09T09:30:30.306Z,5152.00
2022-09-09T09:35:26.207Z,5660.00
2022-09-09T09:40:26.171Z,6984.00
2022-09-09T09:45:26.101Z,5376.00
2022-09-09T09:50:26.046Z,4620.00
2022-09-09T09:55:25.995Z,4976.00
2022-09-09T10:00:25.953Z,5140.00
2022-09-09T10:05:27.081Z,5800.00
2022-09-09T10:10:25.826Z,8020.00
2022-09-09T10:15:32.968Z,7612.00
2022-09-09T10:20:25.720Z,5328.00
2022-09-09T10:25:25.665Z,6580.00
2022-09-09T10:30:25.615Z,6964.00
2022-09-09T10:35:25.581Z,6864.00
2022-09-09T10:40:25.582Z,7120.00
2022-09-09T10:45:25.453Z,8284.00
2022-09-09T10:50:28.184Z,8100.00
2022-09-09T10:55:29.734Z,8380.00
2022-09-09T11:00:25.295Z,8524.00
2022-09-09T11:05:25.240Z,7024.00
2022-09-09T11:10:25.306Z,8856.00
2022-09-09T11:15:25.149Z,7668.00
2022-09-09T11:20:25.091Z,8320.00
2022-09-09T11:25:25.014Z,7112.00
2022-09-09T11:30:51.598Z,6500.00
2022-09-09T11:35:25.926Z,3880.00
2022-09-09T11:40:24.857Z,4072.00
2022-09-09T11:45:24.800Z,2632.00
2022-09-09T11:50:24.778Z,2404.00
2022-09-09T11:55:24.716Z,3712.00
2022-09-09T12:00:24.636Z,6392.00
2022-09-09T12:05:24.661Z,5584.00
2022-09-09T12:10:24.527Z,4288.00
2022-09-09T12:15:24.500Z,3600.00
2022-09-09T12:20:24.649Z,4192.00
2022-09-09T12:25:24.373Z,2460.00
2022-09-09T12:30:24.316Z,3100.00
2022-09-09T12:35:24.384Z,4408.00
2022-09-09T12:40:24.205Z,5304.00
2022-09-09T12:45:24.148Z,3636.00
2022-09-09T12:50:24.092Z,6412.00
2022-09-09T12:55:24.081Z,7692.00
2022-09-09T13:00:23.987Z,5996.00
2022-09-09T13:05:23.936Z,2440.00
2022-09-09T13:10:36.341Z,816.00
2022-09-09T13:15:24.936Z,2224.00
2022-09-09T13:20:23.763Z,4876.00
2022-09-09T13:25:23.709Z,9104.00
2022-09-09T13:30:23.822Z,8372.00
2022-09-09T13:35:23.621Z,5552.00
2022-09-09T13:40:23.542Z,6452.00
2022-09-09T13:45:23.493Z,5196.00
2022-09-09T13:50:23.680Z,5276.00
2022-09-09T13:55:23.400Z,8480.00
2022-09-09T14:00:23.351Z,6688.00
2022-09-09T14:05:23.289Z,5252.00
2022-09-09T14:10:23.219Z,4276.00
2022-09-09T14:15:23.187Z,4860.00
2022-09-09T14:20:23.112Z,4308.00
2022-09-09T14:25:23.057Z,3916.00
2022-09-09T14:30:23.004Z,3308.00
2022-09-09T14:35:22.969Z,1952.00
2022-09-09T14:40:22.891Z,5464.00
2022-09-09T14:45:22.823Z,4960.00
2022-09-09T14:50:22.780Z,1700.00
2022-09-09T14:55:22.751Z,2600.00
2022-09-09T15:00:22.721Z,3104.00
2022-09-09T15:05:22.621Z,2996.00
2022-09-09T15:10:22.563Z,4152.00
2022-09-09T15:15:22.533Z,4988.00
2022-09-09T15:20:22.453Z,4296.00
2022-09-09T15:25:22.399Z,3996.00
2022-09-09T15:30:22.332Z,3656.00
2022-09-09T15:35:22.311Z,4376.00
2022-09-09T15:40:22.323Z,5368.00
2022-09-09T15:45:22.186Z,4764.00
2022-09-09T15:50:22.125Z,3104.00
2022-09-09T15:55:22.092Z,1376.00
2022-09-09T16:00:22.012Z,796.00
2022-09-09T16:05:21.963Z,672.00
2022-09-09T16:10:21.905Z,736.00
2022-09-09T16:15:21.873Z,1432.00
2022-09-09T16:20:28.831Z,2628.00
2022-09-09T16:25:21.738Z,2776.00
2022-09-09T16:30:21.688Z,2948.00
2022-09-09T16:35:21.640Z,2272.00
2022-09-09T16:40:21.706Z,1580.00
2022-09-09T16:45:21.522Z,1400.00
2022-09-09T16:50:21.468Z,1296.00
2022-09-09T16:55:21.435Z,1236.00
2022-09-09T17:00:21.358Z,932.00
2022-09-09T17:05:21.301Z,740.00
2022-09-09T17:10:21.251Z,664.00
2022-09-09T17:15:21.206Z,584.00
2022-09-09T17:20:21.137Z,556.00
2022-09-09T17:25:21.078Z,536.00
2022-09-09T17:30:21.028Z,456.00
2022-09-09T17:35:20.988Z,392.00
2022-09-09T17:40:21.016Z,352.00
2022-09-09T17:45:20.845Z,280.00
2022-09-09T17:50:20.803Z,204.00
2022-09-09T17:55:20.764Z,144.00
2022-09-09T18:00:20.692Z,100.00
2022-09-09T18:05:20.636Z,64.00
2022-09-09T18:10:20.581Z,32.00
2022-09-09T18:15:33.342Z,12.00
2022-09-09T18:20:21.471Z,0.00
2022-09-09T18:25:20.421Z,0.00
2022-09-09T18:30:20.361Z,0.00
2022-09-09T18:35:20.326Z,0.00
2022-09-09T18:40:20.254Z,0.00
2022-09-09T18:45:20.194Z,0.00
2022-09-09T18:50:20.139Z,0.00
2022-09-09T18:55:20.101Z,0.00
2022-09-09T19:00:20.026Z,0.00
2022-09-09T19:05:19.968Z,0.00
2022-09-09T19:10:19.917Z,0.00
2022-09-09T19:15:19.897Z,0.00
2022-09-09T19:20:19.808Z,0.00
2022-09-09T19:25:19.750Z,0.00
2022-09-09T19:30:19.696Z,0.00
2022-09-09T19:35:19.667Z,0.00
2022-09-09T19:40:19.584Z,0.00
2022-09-09T19:45:19.527Z,0.00
2022-09-09T19:50:19.475Z,0.00
2022-09-09T19:55:19.439Z,0.00
2022-09-09T20:00:19.358Z,0.00
2022-09-09T20:05:19.312Z,0.00
2022-09-09T20:10:19.408Z,0.00
2022-09-09T20:15:19.223Z,0.00
2022-09-09T20:20:19.138Z,0.00
2022-09-09T20:25:19.084Z,0.00
2022-09-09T20:30:19.028Z,0.00
2022-09-09T20:35:18.998Z,0.00
2022-09-09T20:40:18.920Z,0.00
2022-09-09T20:45:18.871Z,0.00
2022-09-09T20:50:18.812Z,0.00
2022-09-09T20:55:18.776Z,0.00
2022-09-09T21:00:18.703Z,0.00
2022-09-09T21:05:22.018Z,0.00
2022-09-09T21:10:19.590Z,0.00
2022-09-09T21:15:18.557Z,0.00
2022-09-09T21:20:18.479Z,0.00
2022-09-09T21:25:18.422Z,0.00
2022-09-09T21:30:18.366Z,0.00
2022-09-09T21:35:18.335Z,0.00
2022-09-09T21:40:18.258Z,0.00
2022-09-09T21:45:18.205Z,0.00
2022-09-09T21:50:18.145Z,0.00
2022-09-09T21:55:18.122Z,0.00
2022-09-09T22:00:18.047Z,0.00
2022-09-09T22:05:17.980Z,0.00
2022-09-09T22:10:17.932Z,0.00
2022-09-09T22:15:17.979Z,0.00
2022-09-09T22:20:17.817Z,0.00
2022-09-09T22:25:17.760Z,0.00
2022-09-09T22:30:17.705Z,0.00
2022-09-09T22:35:17.677Z,0.00
2022-09-09T22:40:17.600Z,0.00
2022-09-09T22:45:17.542Z,0.00
2022-09-09T22:50:17.490Z,0.00
2022-09-09T22:55:17.455Z,0.00
2022-09-09T23:00:17.366Z,0.00
2022-09-09T23:05:17.319Z,0.00
2022-09-09T23:10:17.269Z,0.00
2022-09-09T23:15:17.242Z,0.00
2022-09-09T23:20:17.157Z,0.00
2022-09-09T23:25:17.089Z,0.00
